Time;durP1;ratioP1;P1;durP2;ratioP2;P2;SDS_P1;SDS_P2;PMS_P1;PMS_P2;Temp;Humidity;BMP_temperature;BMP_pressure;BME280_temperature;BME280_humidity;BME280_pressure;Samples;Min_cycle;Max_cycle;Signal;HPM_P1;HPM_P2
2023/08/27 00:00:16;;;;;;;16.58;7.90;;;;;;;-144.15;100.00;63241.31;1030746;28;20627;-75
2023/08/27 00:00:46;;;;;;;13.55;7.38;;;;;;;-144.15;100.00;63241.31;1034784;28;20204;-75
2023/08/27 00:01:17;;;;;;;12.77;7.55;;;;;;;-144.15;100.00;63241.31;1026755;28;20023;-74
2023/08/27 00:01:47;;;;;;;17.13;7.72;;;;;;;-144.15;100.00;63241.31;1026810;28;20472;-75
2023/08/27 00:02:17;;;;;;;21.42;8.73;;;;;;;-144.15;100.00;63241.31;1026587;28;20058;-73
2023/08/27 00:02:48;;;;;;;16.67;7.72;;;;;;;-144.15;100.00;63241.31;1022906;28;20062;-74
2023/08/27 00:03:18;;;;;;;16.75;7.53;;;;;;;-144.15;100.00;63241.31;1030114;28;20069;-72
2023/08/27 00:03:49;;;;;;;17.33;8.55;;;;;;;-144.15;100.00;63241.31;1022587;28;20834;-75
2023/08/27 00:04:20;;;;;;;15.70;7.70;;;;;;;-144.15;100.00;63241.31;1022713;28;20090;-75
2023/08/27 00:04:50;;;;;;;15.25;7.57;;;;;;;-144.15;100.00;63241.31;1022895;29;20046;-74
2023/08/27 00:05:20;;;;;;;15.93;7.72;;;;;;;-144.15;100.00;63241.31;1018756;29;20028;-75
2023/08/27 00:05:51;;;;;;;19.52;7.57;;;;;;;-144.15;100.00;63241.31;1022956;29;20417;-75
2023/08/27 00:06:21;;;;;;;27.25;9.73;;;;;;;-144.15;100.00;63241.31;1022704;29;20019;-74
2023/08/27 00:06:52;;;;;;;23.25;8.13;;;;;;;-144.15;100.00;63241.31;1019118;28;20067;-76
2023/08/27 00:07:23;;;;;;;15.98;7.13;;;;;;;-144.15;100.00;63241.31;1029713;28;20018;-75
2023/08/27 00:07:53;;;;;;;12.52;7.45;;;;;;;-144.15;100.00;63241.31;1022841;29;20038;-75
2023/08/27 00:08:24;;;;;;;12.90;6.88;;;;;;;-144.15;100.00;63241.31;1018855;29;20432;-75
2023/08/27 00:08:54;;;;;;;14.98;7.80;;;;;;;-144.15;100.00;63241.31;1022785;29;20066;-75
2023/08/27 00:09:25;;;;;;;16.00;7.22;;;;;;;-144.15;100.00;63241.31;1023004;28;20016;-75
2023/08/27 00:09:55;;;;;;;14.25;7.80;;;;;;;-144.15;100.00;63241.31;1030951;28;20069;-74
2023/08/27 00:10:25;;;;;;;17.92;8.00;;;;;;;-144.15;100.00;63241.31;1030508;28;20037;-74
2023/08/27 00:10:58;;;;;;;12.82;7.45;;;;;;;-144.15;100.00;63241.31;1030814;28;20030;-75
2023/08/27 00:11:28;;;;;;;12.77;7.43;;;;;;;-144.15;100.00;63241.31;1030874;28;20018;-75
2023/08/27 00:11:59;;;;;;;16.10;7.65;;;;;;;-144.15;100.00;63241.31;1027045;28;20380;-75
2023/08/27 00:12:29;;;;;;;16.00;7.10;;;;;;;-144.15;100.00;63241.31;1018443;28;20023;-75
2023/08/27 00:13:00;;;;;;;14.18;7.85;;;;;;;-144.15;100.00;63241.31;1018818;29;20425;-75
2023/08/27 00:13:30;;;;;;;15.35;7.72;;;;;;;-144.15;100.00;63241.31;1014110;29;20083;-75
2023/08/27 00:14:02;;;;;;;14.73;7.40;;;;;;;-144.15;100.00;63241.31;1018865;28;20033;-75
2023/08/27 00:14:33;;;;;;;14.57;7.93;;;;;;;-144.15;100.00;63241.31;1030808;28;20150;-75
2023/08/27 00:15:04;;;;;;;12.85;7.35;;;;;;;-144.15;100.00;63241.31;1019069;29;20381;-75
2023/08/27 00:15:35;;;;;;;15.68;7.32;;;;;;;-144.15;100.00;63241.31;1022656;29;20039;-75
2023/08/27 00:16:09;;;;;;;21.50;8.45;;;;;;;-144.15;100.00;63241.31;1022804;29;20032;-75
2023/08/27 00:16:39;;;;;;;12.35;7.32;;;;;;;-144.15;100.00;63241.31;1020567;28;20028;-74
2023/08/27 00:17:10;;;;;;;15.55;7.55;;;;;;;-144.15;100.00;63241.31;1030842;28;20085;-75
2023/08/27 00:17:41;;;;;;;17.63;7.95;;;;;;;-144.15;100.00;63241.31;1026661;28;20035;-75
2023/08/27 00:18:12;;;;;;;13.40;7.07;;;;;;;-144.15;100.00;63241.31;1023115;28;20027;-74
2023/08/27 00:18:43;;;;;;;15.85;7.25;;;;;;;-144.15;100.00;63241.31;1018634;29;20414;-74
2023/08/27 00:19:14;;;;;;;11.82;6.88;;;;;;;-144.15;100.00;63241.31;1019078;29;20034;-73
2023/08/27 00:19:45;;;;;;;15.85;7.97;;;;;;;-144.15;100.00;63241.31;1015202;29;20036;-74
2023/08/27 00:20:15;;;;;;;17.15;7.28;;;;;;;-144.15;100.00;63241.31;1019163;29;20047;-74
2023/08/27 00:20:46;;;;;;;12.27;7.40;;;;;;;-144.15;100.00;63241.31;1022473;29;20070;-74
2023/08/27 00:21:17;;;;;;;11.90;6.85;;;;;;;-144.15;100.00;63241.31;1023024;28;20541;-74
2023/08/27 00:21:51;;;;;;;13.35;7.43;;;;;;;-144.15;100.00;63241.31;1027231;28;20030;-75
2023/08/27 00:22:22;;;;;;;16.73;8.30;;;;;;;-144.15;100.00;63241.31;1030459;28;20020;-74
2023/08/27 00:22:52;;;;;;;15.00;7.30;;;;;;;-144.15;100.00;63241.31;1026556;28;20037;-74
2023/08/27 00:23:23;;;;;;;17.23;7.47;;;;;;;-144.15;100.00;63241.31;1021163;28;20051;-73
2023/08/27 00:23:54;;;;;;;16.65;7.82;;;;;;;-144.15;100.00;63241.31;1022437;29;20070;-75
2023/08/27 00:24:24;;;;;;;14.73;7.95;;;;;;;-144.15;100.00;63241.31;1022677;28;20047;-75
2023/08/27 00:24:55;;;;;;;14.20;6.88;;;;;;;-144.15;100.00;63241.31;1022789;28;20820;-75
2023/08/27 00:25:25;;;;;;;14.70;7.50;;;;;;;-144.15;100.00;63241.31;1026796;28;20089;-75
2023/08/27 00:25:56;;;;;;;16.42;6.97;;;;;;;-144.15;100.00;63241.31;1030560;28;20058;-75
2023/08/27 00:26:26;;;;;;;12.95;7.65;;;;;;;-144.15;100.00;63241.31;1026654;28;20035;-74
2023/08/27 00:26:57;;;;;;;20.60;8.45;;;;;;;-144.15;100.00;63241.31;1030711;28;20157;-75
2023/08/27 00:27:27;;;;;;;15.75;8.27;;;;;;;-144.15;100.00;63241.31;1030681;28;20093;-75
2023/08/27 00:27:58;;;;;;;16.83;7.72;;;;;;;-144.15;100.00;63241.31;1018751;29;20032;-73
2023/08/27 00:28:28;;;;;;;16.30;7.97;;;;;;;-144.15;100.00;63241.31;1022685;29;20624;-73
2023/08/27 00:28:59;;;;;;;15.77;7.95;;;;;;;-144.15;100.00;63241.31;1022641;29;20042;-73
2023/08/27 00:29:30;;;;;;;13.52;7.18;;;;;;;-144.15;100.00;63241.31;1023053;28;20039;-74
2023/08/27 00:30:03;;;;;;;14.85;7.00;;;;;;;-144.15;100.00;63241.31;1030784;28;20144;-74
2023/08/27 00:30:33;;;;;;;13.90;7.15;;;;;;;-144.15;100.00;63241.31;1022766;29;20035;-73
2023/08/27 00:31:04;;;;;;;12.55;7.50;;;;;;;-144.15;100.00;63241.31;1024499;28;20031;-73
2023/08/27 00:31:34;;;;;;;13.98;7.85;;;;;;;-144.15;100.00;63241.31;1022727;29;20046;-73
2023/08/27 00:32:05;;;;;;;15.45;7.75;;;;;;;-144.15;100.00;63241.31;1019506;28;20379;-74
2023/08/27 00:32:35;;;;;;;12.70;7.57;;;;;;;-144.15;100.00;63241.31;1026549;28;20022;-73
2023/08/27 00:33:06;;;;;;;13.20;7.15;;;;;;;-144.15;100.00;63241.31;1026662;28;20034;-73
2023/08/27 00:33:37;;;;;;;13.18;7.57;;;;;;;-144.15;100.00;63241.31;1022090;28;20172;-74
2023/08/27 00:34:08;;;;;;;12.48;7.38;;;;;;;-144.15;100.00;63241.31;1026510;28;20037;-74
2023/08/27 00:34:38;;;;;;;16.02;7.53;;;;;;;-144.15;100.00;63241.31;1026439;28;20151;-73
2023/08/27 00:35:09;;;;;;;11.77;7.13;;;;;;;-144.15;100.00;63241.31;1026795;28;20062;-73
2023/08/27 00:35:42;;;;;;;16.38;7.88;;;;;;;-144.15;100.00;63241.31;1030525;28;20440;-74
2023/08/27 00:36:12;;;;;;;11.38;6.78;;;;;;;-144.15;100.00;63241.31;1030586;28;20435;-75
2023/08/27 00:36:42;;;;;;;19.13;7.82;;;;;;;-144.15;100.00;63241.31;1026643;28;20034;-74
2023/08/27 00:37:13;;;;;;;13.27;7.13;;;;;;;-144.15;100.00;63241.31;1021613;28;20560;-75
2023/08/27 00:37:43;;;;;;;13.32;7.57;;;;;;;-144.15;100.00;63241.31;1022331;29;20042;-74
2023/08/27 00:38:14;;;;;;;11.98;7.28;;;;;;;-144.15;100.00;63241.31;1014835;29;20039;-75
2023/08/27 00:38:44;;;;;;;15.77;6.82;;;;;;;-144.15;100.00;63241.31;1018696;29;20528;-75
2023/08/27 00:39:15;;;;;;;11.70;7.28;;;;;;;-144.15;100.00;63241.31;1018636;29;20074;-74
2023/08/27 00:39:45;;;;;;;14.48;7.15;;;;;;;-144.15;100.00;63241.31;1018479;28;20024;-74
2023/08/27 00:40:16;;;;;;;14.68;7.25;;;;;;;-144.15;100.00;63241.31;1026491;28;20034;-73
2023/08/27 00:40:46;;;;;;;14.00;7.15;;;;;;;-144.15;100.00;63241.31;1022726;28;20085;-75
2023/08/27 00:41:17;;;;;;;19.25;7.15;;;;;;;-144.15;100.00;63241.31;1026444;28;20121;-75
2023/08/27 00:41:47;;;;;;;14.75;7.75;;;;;;;-144.15;100.00;63241.31;1026568;28;20105;-75
2023/08/27 00:42:18;;;;;;;10.25;7.10;;;;;;;-144.15;100.00;63241.31;1022603;29;20015;-73
2023/08/27 00:42:49;;;;;;;16.40;7.78;;;;;;;-144.15;100.00;63241.31;1022536;29;20023;-75
2023/08/27 00:43:19;;;;;;;15.80;7.50;;;;;;;-144.15;100.00;63241.31;1017886;29;20027;-75
2023/08/27 00:43:49;;;;;;;10.90;6.85;;;;;;;-144.15;100.00;63241.31;1018649;29;20223;-75
2023/08/27 00:44:20;;;;;;;10.82;6.70;;;;;;;-144.15;100.00;63241.31;1014725;29;20035;-75
2023/08/27 00:44:51;;;;;;;15.02;7.00;;;;;;;-144.15;100.00;63241.31;1014908;29;20024;-75
2023/08/27 00:45:21;;;;;;;12.38;6.88;;;;;;;-144.15;100.00;63241.31;1018601;29;20032;-74
2023/08/27 00:45:52;;;;;;;12.38;7.03;;;;;;;-144.15;100.00;63241.31;1022734;28;20030;-75
2023/08/27 00:46:22;;;;;;;11.73;7.03;;;;;;;-144.15;100.00;63241.31;1022647;28;20031;-75
2023/08/27 00:46:53;;;;;;;11.73;6.75;;;;;;;-144.15;100.00;63241.31;1024912;28;20471;-75
2023/08/27 00:47:23;;;;;;;16.10;7.43;;;;;;;-144.15;100.00;63241.31;1026580;28;20026;-74
2023/08/27 00:47:53;;;;;;;10.88;6.32;;;;;;;-144.15;100.00;63241.31;1022533;29;20075;-74
2023/08/27 00:48:24;;;;;;;13.18;6.78;;;;;;;-144.15;100.00;63241.31;1022422;29;20477;-74
2023/08/27 00:48:54;;;;;;;12.73;6.32;;;;;;;-144.15;100.00;63241.31;1022712;29;20023;-73
2023/08/27 00:49:25;;;;;;;14.45;6.90;;;;;;;-144.15;100.00;63241.31;1018685;29;20083;-75
2023/08/27 00:49:55;;;;;;;11.77;6.97;;;;;;;-144.15;100.00;63241.31;1018608;29;20020;-74
2023/08/27 00:50:26;;;;;;;16.92;7.05;;;;;;;-144.15;100.00;63241.31;1025939;28;20475;-74
2023/08/27 00:50:57;;;;;;;11.57;6.97;;;;;;;-144.15;100.00;63241.31;1018641;29;20031;-75
2023/08/27 00:51:27;;;;;;;11.95;6.95;;;;;;;-144.15;100.00;63241.31;1014629;29;20031;-75
2023/08/27 00:51:58;;;;;;;12.77;7.15;;;;;;;-144.15;100.00;63241.31;1014426;29;20020;-73
2023/08/27 00:52:29;;;;;;;10.68;6.47;;;;;;;-144.15;100.00;63241.31;1010803;29;20610;-74
2023/08/27 00:52:59;;;;;;;13.57;7.75;;;;;;;-144.15;100.00;63241.31;1015056;29;20052;-74
2023/08/27 00:53:30;;;;;;;11.50;6.88;;;;;;;-144.15;100.00;63241.31;1018699;29;20028;-74
2023/08/27 00:54:00;;;;;;;10.45;6.50;;;;;;;-144.15;100.00;63241.31;1022614;28;20113;-72
2023/08/27 00:54:31;;;;;;;12.50;6.82;;;;;;;-144.15;100.00;63241.31;1030680;28;20026;-74
2023/08/27 00:55:03;;;;;;;13.15;6.85;;;;;;;-144.15;100.00;63241.31;1026608;28;20011;-75
2023/08/27 00:55:34;;;;;;;12.00;6.65;;;;;;;-144.15;100.00;63241.31;1026523;28;20131;-75
2023/08/27 00:56:05;;;;;;;10.65;6.88;;;;;;;-144.15;100.00;63241.31;1018387;29;20748;-75
2023/08/27 00:56:35;;;;;;;13.10;6.95;;;;;;;-144.15;100.00;63241.31;1018630;29;20211;-74
2023/08/27 00:57:06;;;;;;;15.27;7.57;;;;;;;-144.15;100.00;63241.31;1014654;29;20101;-74
2023/08/27 00:57:37;;;;;;;10.50;6.45;;;;;;;-144.15;100.00;63241.31;1014750;29;20020;-74
2023/08/27 00:58:08;;;;;;;11.68;6.88;;;;;;;-144.15;100.00;63241.31;1022511;28;20026;-75
2023/08/27 00:58:41;;;;;;;11.85;6.80;;;;;;;-144.15;100.00;63241.31;1022371;29;20031;-74
2023/08/27 00:59:11;;;;;;;12.30;6.20;;;;;;;-144.15;100.00;63241.31;1019640;28;20444;-74
2023/08/27 00:59:42;;;;;;;12.52;6.78;;;;;;;-144.15;100.00;63241.31;1018549;29;20047;-74
2023/08/27 01:00:13;;;;;;;10.55;6.47;;;;;;;-144.15;100.00;63241.31;1018443;29;20027;-73
2023/08/27 01:00:44;;;;;;;11.13;6.85;;;;;;;-144.15;100.00;63241.31;1022536;29;20027;-74
2023/08/27 01:01:14;;;;;;;11.57;7.00;;;;;;;-144.15;100.00;63241.31;1014695;29;20084;-72
2023/08/27 01:01:45;;;;;;;9.68;6.38;;;;;;;-144.15;100.00;63241.31;1018582;29;20020;-74
2023/08/27 01:02:16;;;;;;;9.68;6.40;;;;;;;-144.15;100.00;63241.31;1018513;29;20027;-74
2023/08/27 01:02:47;;;;;;;12.40;6.90;;;;;;;-144.15;100.00;63241.31;1018721;28;20027;-77
2023/08/27 01:03:18;;;;;;;14.73;7.07;;;;;;;-144.15;100.00;63241.31;1022006;29;20035;-73
2023/08/27 01:03:48;;;;;;;13.27;7.00;;;;;;;-144.15;100.00;63241.31;1018485;29;20043;-75
2023/08/27 01:04:19;;;;;;;15.95;7.18;;;;;;;-144.15;100.00;63241.31;1014971;29;20071;-75
2023/08/27 01:04:50;;;;;;;11.18;6.45;;;;;;;-144.15;100.00;63241.31;1019029;28;20043;-75
2023/08/27 01:05:24;;;;;;;11.88;6.63;;;;;;;-144.15;100.00;63241.31;1018695;29;20036;-75
2023/08/27 01:05:55;;;;;;;11.43;6.32;;;;;;;-144.15;100.00;63241.31;1019381;29;20023;-75
2023/08/27 01:06:25;;;;;;;12.55;6.85;;;;;;;-144.15;100.00;63241.31;1018409;29;20083;-75
2023/08/27 01:07:02;;;;;;;8.80;5.95;;;;;;;-144.15;100.00;63241.31;1019206;29;20043;-75
2023/08/27 01:08:04;;;;;;;12.52;6.30;;;;;;;-144.15;100.00;63241.31;1018501;29;20019;-75
2023/08/27 01:08:57;;;;;;;9.43;6.18;;;;;;;-144.15;100.00;63241.31;1022411;29;20027;-75
2023/08/27 01:09:33;;;;;;;11.80;5.82;;;;;;;-144.15;100.00;63241.31;1022261;29;20067;-75
2023/08/27 01:10:13;;;;;;;9.52;5.82;;;;;;;-144.15;100.00;63241.31;1022537;29;20110;-73
2023/08/27 01:11:14;;;;;;;9.63;6.07;;;;;;;-144.15;100.00;63241.31;1020821;29;20677;-75
2023/08/27 01:11:52;;;;;;;;;;;;;;;-144.15;100.00;63241.31;1020290;29;20039;-75
2023/08/27 01:12:39;;;;;;;11.68;5.68;;;;;;;-144.15;100.00;63241.31;1019355;29;19911;-76
2023/08/27 01:13:13;;;;;;;16.25;6.95;;;;;;;-144.15;100.00;63241.31;1014454;29;20024;-75
2023/08/27 01:13:46;;;;;;;11.63;6.30;;;;;;;-144.15;100.00;63241.31;1018329;29;20036;-76
2023/08/27 01:14:17;;;;;;;10.20;6.30;;;;;;;-144.15;100.00;63241.31;1022363;28;20134;-76
2023/08/27 01:14:48;;;;;;;12.10;6.72;;;;;;;-144.15;100.00;63241.31;1022440;28;20054;-77
2023/08/27 01:15:18;;;;;;;9.15;5.75;;;;;;;-144.15;100.00;63241.31;1022602;29;20410;-75
2023/08/27 01:15:54;;;;;;;11.90;6.20;;;;;;;-144.15;100.00;63241.31;1020916;29;20031;-74
2023/08/27 01:16:26;;;;;;;9.93;6.28;;;;;;;-144.15;100.00;63241.31;1014574;29;20078;-75
2023/08/27 01:16:56;;;;;;;13.00;7.13;;;;;;;-144.15;100.00;63241.31;1014641;29;20024;-76
2023/08/27 01:17:27;;;;;;;12.73;6.60;;;;;;;-144.15;100.00;63241.31;1022370;29;20027;-76
2023/08/27 01:17:58;;;;;;;9.10;6.22;;;;;;;-144.15;100.00;63241.31;1022397;29;20429;-75
2023/08/27 01:18:29;;;;;;;11.55;6.32;;;;;;;-144.15;100.00;63241.31;1018659;29;20445;-76
2023/08/27 01:19:00;;;;;;;12.35;6.20;;;;;;;-144.15;100.00;63241.31;1015136;29;20027;-76
2023/08/27 01:19:30;;;;;;;12.25;7.10;;;;;;;-144.15;100.00;63241.31;1014719;29;20540;-76
2023/08/27 01:20:05;;;;;;;13.30;6.75;;;;;;;-144.15;100.00;63241.31;1018537;29;20031;-75
2023/08/27 01:20:35;;;;;;;12.88;6.60;;;;;;;-144.15;100.00;63241.31;1018589;29;20046;-76
2023/08/27 01:21:19;;;;;;;11.68;6.15;;;;;;;-144.15;100.00;63241.31;1022343;29;20031;-76
2023/08/27 01:21:49;;;;;;;11.57;6.72;;;;;;;-144.15;100.00;63241.31;1024824;28;20016;-76
2023/08/27 01:22:19;;;;;;;13.73;6.50;;;;;;;-144.15;100.00;63241.31;1022448;29;20074;-76
2023/08/27 01:22:50;;;;;;;10.50;6.47;;;;;;;-144.15;100.00;63241.31;1018402;29;20039;-76
2023/08/27 01:23:20;;;;;;;9.85;6.35;;;;;;;-144.15;100.00;63241.31;1017879;29;20031;-76
2023/08/27 01:23:51;;;;;;;9.35;5.97;;;;;;;-144.15;100.00;63241.31;1018372;29;20038;-75
2023/08/27 01:24:21;;;;;;;11.57;6.30;;;;;;;-144.15;100.00;63241.31;1014827;28;20135;-76
2023/08/27 01:24:52;;;;;;;10.23;6.38;;;;;;;-144.15;100.00;63241.31;1026500;28;20034;-76
2023/08/27 01:25:26;;;;;;;10.07;6.20;;;;;;;-144.15;100.00;63241.31;1026418;28;20038;-76
2023/08/27 01:25:57;;;;;;;10.40;5.93;;;;;;;-144.15;100.00;63241.31;1022391;29;20033;-76
2023/08/27 01:26:47;;;;;;;10.90;5.90;;;;;;;-144.15;100.00;63241.31;1018433;29;20035;-75
2023/08/27 01:27:28;;;;;;;11.43;5.75;;;;;;;-144.15;100.00;63241.31;1014567;29;20032;-74
2023/08/27 01:28:25;;;;;;;11.07;5.95;;;;;;;-144.15;100.00;63241.31;1022410;29;20027;-75
2023/08/27 01:29:05;;;;;;;8.93;5.57;;;;;;;-144.15;100.00;63241.31;1018014;28;20115;-75
2023/08/27 01:29:43;;;;;;;10.68;6.55;;;;;;;-144.15;100.00;63241.31;1026189;28;20023;-76
2023/08/27 01:30:17;;;;;;;12.68;6.22;;;;;;;-144.15;100.00;63241.31;1022597;29;20037;-76
2023/08/27 01:30:55;;;;;;;8.02;5.55;;;;;;;-144.15;100.00;63241.31;1022423;28;20070;-76
2023/08/27 01:31:27;;;;;;;11.25;6.30;;;;;;;-144.15;100.00;63241.31;1022338;29;20031;-76
2023/08/27 01:32:36;;;;;;;12.93;6.25;;;;;;;-144.15;100.00;63241.31;1026385;28;20548;-76
2023/08/27 01:33:10;;;;;;;11.75;6.65;;;;;;;-144.15;100.00;63241.31;1030054;28;20034;-76
2023/08/27 01:33:40;;;;;;;18.83;6.05;;;;;;;-144.15;100.00;63241.31;1030022;28;20030;-76
2023/08/27 01:34:11;;;;;;;13.43;6.47;;;;;;;-144.15;100.00;63241.31;1026544;28;20034;-75
2023/08/27 01:34:41;;;;;;;14.88;6.90;;;;;;;-144.15;100.00;63241.31;1022312;29;20368;-75
2023/08/27 01:35:12;;;;;;;11.50;7.45;;;;;;;-144.15;100.00;63241.31;1018733;29;20019;-75
2023/08/27 01:35:43;;;;;;;14.52;6.35;;;;;;;-144.15;100.00;63241.31;1022286;29;20504;-76
2023/08/27 01:36:13;;;;;;;9.65;6.22;;;;;;;-144.15;100.00;63241.31;1014464;29;20242;-74
2023/08/27 01:36:44;;;;;;;12.95;6.85;;;;;;;-144.15;100.00;63241.31;1010711;29;20060;-75
2023/08/27 01:37:14;;;;;;;10.93;6.25;;;;;;;-144.15;100.00;63241.31;1010742;29;20024;-75
2023/08/27 01:37:45;;;;;;;11.55;6.28;;;;;;;-144.15;100.00;63241.31;1011499;29;20047;-76
2023/08/27 01:38:15;;;;;;;10.88;6.63;;;;;;;-144.15;100.00;63241.31;1018634;29;20281;-75
2023/08/27 01:38:46;;;;;;;10.63;6.47;;;;;;;-144.15;100.00;63241.31;1018467;29;20028;-75
2023/08/27 01:39:16;;;;;;;14.00;7.07;;;;;;;-144.15;100.00;63241.31;1014649;29;20032;-74
2023/08/27 01:39:46;;;;;;;10.55;6.45;;;;;;;-144.15;100.00;63241.31;1018110;29;20047;-75
2023/08/27 01:40:17;;;;;;;13.73;7.10;;;;;;;-144.15;100.00;63241.31;1018612;29;20079;-76
2023/08/27 01:40:48;;;;;;;14.38;7.68;;;;;;;-144.15;100.00;63241.31;1022422;29;20027;-75
2023/08/27 01:41:18;;;;;;;9.75;6.53;;;;;;;-144.15;100.00;63241.31;1018293;29;20490;-75
2023/08/27 01:41:49;;;;;;;11.73;7.07;;;;;;;-144.15;100.00;63241.31;1018403;28;20897;-75
2023/08/27 01:42:19;;;;;;;11.30;7.25;;;;;;;-144.15;100.00;63241.31;1026244;28;20031;-75
2023/08/27 01:42:53;;;;;;;12.57;7.57;;;;;;;-144.15;100.00;63241.31;1022419;29;20509;-75
2023/08/27 01:43:23;;;;;;;10.68;6.68;;;;;;;-144.15;100.00;63241.31;1023230;28;20027;-76
2023/08/27 01:43:54;;;;;;;11.52;7.20;;;;;;;-144.15;100.00;63241.31;1022328;29;20035;-76
2023/08/27 01:44:24;;;;;;;14.88;7.50;;;;;;;-144.15;100.00;63241.31;1018455;29;20031;-75
2023/08/27 01:44:55;;;;;;;17.48;7.85;;;;;;;-144.15;100.00;63241.31;1018407;29;20032;-75
2023/08/27 01:45:26;;;;;;;13.25;8.27;;;;;;;-144.15;100.00;63241.31;1014562;29;20028;-75
2023/08/27 01:45:56;;;;;;;13.45;7.93;;;;;;;-144.15;100.00;63241.31;1014644;29;20031;-75
2023/08/27 01:46:27;;;;;;;11.32;7.45;;;;;;;-144.15;100.00;63241.31;1014561;29;20421;-75
2023/08/27 01:46:57;;;;;;;10.90;7.53;;;;;;;-144.15;100.00;63241.31;1022315;28;20031;-74
2023/08/27 01:47:28;;;;;;;12.68;7.47;;;;;;;-144.15;100.00;63241.31;1026535;28;20019;-75
2023/08/27 01:47:58;;;;;;;12.80;7.97;;;;;;;-144.15;100.00;63241.31;1030463;28;20049;-75
2023/08/27 01:48:29;;;;;;;16.40;8.13;;;;;;;-144.15;100.00;63241.31;1030382;28;20076;-76
2023/08/27 01:48:59;;;;;;;11.88;7.15;;;;;;;-144.15;100.00;63241.31;1026443;28;20015;-75
2023/08/27 01:49:30;;;;;;;18.23;8.23;;;;;;;-144.15;100.00;63241.31;1026437;28;20026;-76
2023/08/27 01:50:00;;;;;;;15.63;8.15;;;;;;;-144.15;100.00;63241.31;1026180;28;20886;-75
2023/08/27 01:50:32;;;;;;;11.30;7.25;;;;;;;-144.15;100.00;63241.31;1022645;28;20039;-75
2023/08/27 01:51:03;;;;;;;16.20;8.38;;;;;;;-144.15;100.00;63241.31;1018583;29;20130;-76
2023/08/27 01:51:34;;;;;;;15.77;8.30;;;;;;;-144.15;100.00;63241.31;1018662;29;20042;-74
2023/08/27 01:52:04;;;;;;;13.25;7.38;;;;;;;-144.15;100.00;63241.31;1018720;29;20028;-75
2023/08/27 01:52:35;;;;;;;15.35;7.35;;;;;;;-144.15;100.00;63241.31;1023078;28;20043;-76
2023/08/27 01:53:06;;;;;;;15.85;8.23;;;;;;;-144.15;100.00;63241.31;1030809;28;20034;-76
2023/08/27 01:53:36;;;;;;;17.27;7.35;;;;;;;-144.15;100.00;63241.31;1025676;28;20086;-75
2023/08/27 01:54:07;;;;;;;13.63;8.07;;;;;;;-144.15;100.00;63241.31;1026625;28;20496;-75
2023/08/27 01:54:40;;;;;;;14.68;7.80;;;;;;;-144.15;100.00;63241.31;1022458;28;20122;-74
2023/08/27 01:55:11;;;;;;;19.25;7.82;;;;;;;-144.15;100.00;63241.31;1023342;28;20556;-77
2023/08/27 01:55:41;;;;;;;13.70;7.60;;;;;;;-144.15;100.00;63241.31;1030496;28;20030;-76
2023/08/27 01:56:12;;;;;;;17.23;8.20;;;;;;;-144.15;100.00;63241.31;1023056;28;20629;-75
2023/08/27 01:56:45;;;;;;;14.77;7.53;;;;;;;-144.15;100.00;63241.31;1026268;28;20035;-77
2023/08/27 01:57:15;;;;;;;13.55;7.45;;;;;;;-144.15;100.00;63241.31;1022393;28;20555;-75
2023/08/27 01:57:46;;;;;;;13.35;7.97;;;;;;;-144.15;100.00;63241.31;1023405;28;20131;-76
2023/08/27 01:58:16;;;;;;;12.43;7.75;;;;;;;-144.15;100.00;63241.31;1026458;28;20034;-76
2023/08/27 01:58:47;;;;;;;12.73;7.40;;;;;;;-144.15;100.00;63241.31;1026585;28;20030;-75
2023/08/27 01:59:17;;;;;;;12.73;8.15;;;;;;;-144.15;100.00;63241.31;1026442;28;20039;-74
2023/08/27 01:59:48;;;;;;;13.65;7.95;;;;;;;-144.15;100.00;63241.31;1022622;28;20108;-77
2023/08/27 02:00:20;;;;;;;10.70;7.47;;;;;;;-144.15;100.00;63241.31;1026190;28;20027;-75
2023/08/27 02:00:50;;;;;;;14.10;8.13;;;;;;;-144.15;100.00;63241.31;1026587;28;20087;-76
2023/08/27 02:01:23;;;;;;;14.98;9.13;;;;;;;-144.15;100.00;63241.31;1026624;28;20023;-75
2023/08/27 02:01:54;;;;;;;16.77;7.53;;;;;;;-144.15;100.00;63241.31;1022361;29;20023;-75
2023/08/27 02:02:24;;;;;;;14.40;7.43;;;;;;;-144.15;100.00;63241.31;1018597;29;20027;-75
2023/08/27 02:02:55;;;;;;;15.38;7.82;;;;;;;-144.15;100.00;63241.31;1014584;29;20024;-76
2023/08/27 02:03:25;;;;;;;13.45;7.82;;;;;;;-144.15;100.00;63241.31;1013806;29;20044;-75
2023/08/27 02:03:57;;;;;;;12.57;7.55;;;;;;;-144.15;100.00;63241.31;1014502;29;20040;-76
2023/08/27 02:04:30;;;;;;;9.95;7.05;;;;;;;-144.15;100.00;63241.31;1015613;29;20031;-75
2023/08/27 02:05:00;;;;;;;13.95;7.60;;;;;;;-144.15;100.00;63241.31;1018849;29;20075;-75
2023/08/27 02:05:31;;;;;;;11.52;7.07;;;;;;;-144.15;100.00;63241.31;1023418;28;20052;-75
2023/08/27 02:06:01;;;;;;;12.30;7.32;;;;;;;-144.15;100.00;63241.31;1026320;28;20093;-75
2023/08/27 02:06:32;;;;;;;12.88;7.32;;;;;;;-144.15;100.00;63241.31;1026561;28;20035;-75
2023/08/27 02:07:03;;;;;;;11.63;7.07;;;;;;;-144.15;100.00;63241.31;1022146;29;20027;-76
2023/08/27 02:07:36;;;;;;;11.50;7.18;;;;;;;-144.15;100.00;63241.31;1018695;29;20016;-76
2023/08/27 02:08:07;;;;;;;12.65;7.65;;;;;;;-144.15;100.00;63241.31;1022377;29;20023;-75
2023/08/27 02:08:37;;;;;;;14.13;7.13;;;;;;;-144.15;100.00;63241.31;1022867;28;20027;-75
2023/08/27 02:09:07;;;;;;;12.55;7.70;;;;;;;-144.15;100.00;63241.31;1026672;28;20038;-76
2023/08/27 02:09:38;;;;;;;13.40;7.47;;;;;;;-144.15;100.00;63241.31;1026410;28;20034;-75
2023/08/27 02:10:09;;;;;;;12.65;7.00;;;;;;;-144.15;100.00;63241.31;1026448;28;20074;-75
2023/08/27 02:10:39;;;;;;;11.05;6.97;;;;;;;-144.15;100.00;63241.31;1026144;28;20031;-75
2023/08/27 02:11:10;;;;;;;10.35;7.25;;;;;;;-144.15;100.00;63241.31;1026396;28;20058;-74
2023/08/27 02:11:40;;;;;;;13.93;7.47;;;;;;;-144.15;100.00;63241.31;1026397;28;20547;-75
2023/08/27 02:12:10;;;;;;;11.30;7.13;;;;;;;-144.15;100.00;63241.31;1022397;28;20536;-75
2023/08/27 02:12:41;;;;;;;13.65;7.47;;;;;;;-144.15;100.00;63241.31;1022372;29;20449;-74
2023/08/27 02:13:11;;;;;;;13.32;7.25;;;;;;;-144.15;100.00;63241.31;1021912;29;20027;-74
2023/08/27 02:13:42;;;;;;;15.70;8.35;;;;;;;-144.15;100.00;63241.31;1022250;28;20751;-75
2023/08/27 02:14:12;;;;;;;14.05;7.82;;;;;;;-144.15;100.00;63241.31;1022527;28;20349;-75
2023/08/27 02:14:43;;;;;;;14.95;8.65;;;;;;;-144.15;100.00;63241.31;1022591;28;20154;-74
2023/08/27 02:15:13;;;;;;;15.18;8.07;;;;;;;-144.15;100.00;63241.31;1026307;28;20043;-74
2023/08/27 02:15:44;;;;;;;15.85;8.23;;;;;;;-144.15;100.00;63241.31;1028116;28;20038;-74
2023/08/27 02:16:14;;;;;;;16.00;8.27;;;;;;;-144.15;100.00;63241.31;1022377;29;20027;-75
2023/08/27 02:16:45;;;;;;;13.02;7.65;;;;;;;-144.15;100.00;63241.31;1018280;29;20035;-75
2023/08/27 02:17:15;;;;;;;16.00;8.90;;;;;;;-144.15;100.00;63241.31;1018134;29;20031;-74
2023/08/27 02:17:46;;;;;;;16.33;8.15;;;;;;;-144.15;100.00;63241.31;1018311;28;20473;-74
2023/08/27 02:18:16;;;;;;;13.05;7.32;;;;;;;-144.15;100.00;63241.31;1026363;28;20662;-73
2023/08/27 02:18:47;;;;;;;14.45;6.80;;;;;;;-144.15;100.00;63241.31;1026185;28;20082;-74
2023/08/27 02:19:17;;;;;;;18.63;7.45;;;;;;;-144.15;100.00;63241.31;1030142;28;20046;-73
2023/08/27 02:19:48;;;;;;;15.52;7.20;;;;;;;-144.15;100.00;63241.31;1027090;28;20090;-74
2023/08/27 02:20:18;;;;;;;16.65;7.78;;;;;;;-144.15;100.00;63241.31;1023223;28;20054;-74
2023/08/27 02:20:49;;;;;;;14.05;7.35;;;;;;;-144.15;100.00;63241.31;1018916;29;20063;-74
2023/08/27 02:21:19;;;;;;;12.52;7.07;;;;;;;-144.15;100.00;63241.31;1019178;29;20871;-74
2023/08/27 02:21:51;;;;;;;14.80;7.60;;;;;;;-144.15;100.00;63241.31;1023187;28;20087;-74
2023/08/27 02:22:21;;;;;;;11.95;7.28;;;;;;;-144.15;100.00;63241.31;1027770;28;20034;-74
2023/08/27 02:22:52;;;;;;;11.73;6.68;;;;;;;-144.15;100.00;63241.31;1029791;28;20030;-74